Plato — 8PRX — position and weather

sailwx.info

Track history (hours):
 
Tides and Currents Weather Stations Pressure Air Temp Water Temp Dewpoint Dewpoint Depression Visibility Wind Speed Wind Dir Waves Ship Positions

Plato

Last reported at 2017-Jan-21 04:16 UTC. Time now 2017-Jan-23 12:38 UTC.
Position N 66°15' E 011°44'.

Length 89 m; draft 3.2 m.

Type: Cargo ship. MMSI: 314189000.

Date/timePositionNaut miles runAvg speedWind from/ knotsBaromVisibWave heightAir tempDewpointWater temp
2017-Jan-21 04:16N 66°15' E 011°44'5 6.6
2017-Jan-21 03:31N 66°16' E 011°56'6 6.7
2017-Jan-21 02:33N 66°17' E 012°12'7 7.2
2017-Jan-21 01:33N 66°15' E 012°29'15 0.5
2017-Jan-19 22:32N 66°10' E 013°03'10 9.1
2017-Jan-19 21:26N 66°13' E 012°40'8 8.8
2017-Jan-19 20:33N 66°16' E 012°22'8 8.3
2017-Jan-19 19:33N 66°19' E 012°03'8 7.5
2017-Jan-19 18:33N 66°25' E 011°49'6 6.4
2017-Jan-19 17:33N 66°31' E 011°45'5 5.4
2017-Jan-19 16:33N 66°36' E 011°51'5 5.1
2017-Jan-19 15:33N 66°40' E 011°57'165 5.4
2017-Jan-18 09:08N 68°44' E 016°44'26 9.7
2017-Jan-18 06:26N 69°05' E 017°25'8 9.6
2017-Jan-18 05:33N 69°09' E 017°47'7 6.8
2017-Jan-18 04:33N 69°14' E 017°57'  
2017-Jan-15 18:04N 69°03' E 033°05'4 8.1
2017-Jan-15 17:33N 68°59' E 033°03'0 0.5
2017-Jan-15 16:33N 68°59' E 033°03'0 0.0
2017-Jan-15 15:33N 68°59' E 033°03'0 0.0
2017-Jan-15 14:33N 68°59' E 033°03'0 0.0
2017-Jan-15 13:33N 68°59' E 033°03'0 0.0
2017-Jan-15 12:33N 68°59' E 033°03'0 0.0
2017-Jan-15 11:33N 68°59' E 033°03'0 0.0
2017-Jan-15 10:33N 68°59' E 033°03'0 0.0
2017-Jan-15 09:33N 68°59' E 033°03'0 0.0
2017-Jan-15 08:33N 68°59' E 033°03'0 0.0
2017-Jan-15 07:33N 68°59' E 033°03'0 0.0
2017-Jan-15 06:30N 68°59' E 033°03'0 0.0
2017-Jan-15 05:33N 68°59' E 033°03'0 0.0
2017-Jan-15 04:33N 68°59' E 033°03'0 0.0
2017-Jan-15 03:33N 68°59' E 033°03'0 0.0
2017-Jan-15 02:33N 68°59' E 033°03'0 0.0
2017-Jan-15 01:33N 68°59' E 033°03'0 0.0
2017-Jan-15 00:33N 68°59' E 033°03'0 0.0
2017-Jan-14 23:33N 68°59' E 033°03'0 0.0
2017-Jan-14 22:33N 68°59' E 033°03'0 0.0
2017-Jan-14 21:33N 68°59' E 033°03'1 0.7
2017-Jan-14 20:33N 68°59' E 033°02'0 0.1
2017-Jan-14 19:33N 68°59' E 033°02'0 0.0
2017-Jan-14 18:33N 68°59' E 033°02'0 0.0
2017-Jan-14 17:33N 68°59' E 033°02'0 0.0
2017-Jan-14 16:33N 68°59' E 033°02'0 0.0
2017-Jan-14 15:33N 68°59' E 033°02'0 0.0
2017-Jan-14 14:33N 68°59' E 033°02'0 0.0
2017-Jan-14 13:33N 68°59' E 033°02'0 0.0
2017-Jan-14 12:33N 68°59' E 033°02'0 0.0
2017-Jan-14 11:33N 68°59' E 033°02'0 0.0
2017-Jan-14 10:33N 68°59' E 033°02'0 0.0
2017-Jan-14 09:33N 68°59' E 033°02'0 0.0
2017-Jan-14 08:33N 68°59' E 033°02'0 0.0
2017-Jan-14 07:33N 68°59' E 033°02'0 0.0
2017-Jan-14 06:33N 68°59' E 033°02'0 0.0
2017-Jan-14 05:30N 68°59' E 033°02'0 0.0
2017-Jan-14 04:33N 68°59' E 033°02'0 0.0
2017-Jan-14 03:33N 68°59' E 033°02'  
Track history (hours):
 
Tides and Currents Weather Stations Pressure Air Temp Water Temp Dewpoint Dewpoint Depression Visibility Wind Speed Wind Dir Waves Ship Positions

Plato

Last reported at 2017-Jan-21 04:16 UTC. Time now 2017-Jan-23 12:38 UTC.
Position N 66°15' E 011°44'.

Length 89 m; draft 3.2 m.

Type: Cargo ship. MMSI: 314189000.

Date/timePositionNaut miles runAvg speedWind from/ knotsBaromVisibWave heightAir tempDewpointWater temp
2017-Jan-21 04:16N 66°15' E 011°44'5 6.6
2017-Jan-21 03:31N 66°16' E 011°56'6 6.7
2017-Jan-21 02:33N 66°17' E 012°12'7 7.2
2017-Jan-21 01:33N 66°15' E 012°29'15 0.5
2017-Jan-19 22:32N 66°10' E 013°03'10 9.1
2017-Jan-19 21:26N 66°13' E 012°40'8 8.8
2017-Jan-19 20:33N 66°16' E 012°22'8 8.3
2017-Jan-19 19:33N 66°19' E 012°03'8 7.5
2017-Jan-19 18:33N 66°25' E 011°49'6 6.4
2017-Jan-19 17:33N 66°31' E 011°45'5 5.4
2017-Jan-19 16:33N 66°36' E 011°51'5 5.1
2017-Jan-19 15:33N 66°40' E 011°57'165 5.4
2017-Jan-18 09:08N 68°44' E 016°44'26 9.7
2017-Jan-18 06:26N 69°05' E 017°25'8 9.6
2017-Jan-18 05:33N 69°09' E 017°47'7 6.8
2017-Jan-18 04:33N 69°14' E 017°57'  
2017-Jan-15 18:04N 69°03' E 033°05'4 8.1
2017-Jan-15 17:33N 68°59' E 033°03'0 0.5
2017-Jan-15 16:33N 68°59' E 033°03'0 0.0
2017-Jan-15 15:33N 68°59' E 033°03'0 0.0
2017-Jan-15 14:33N 68°59' E 033°03'0 0.0
2017-Jan-15 13:33N 68°59' E 033°03'0 0.0
2017-Jan-15 12:33N 68°59' E 033°03'0 0.0
2017-Jan-15 11:33N 68°59' E 033°03'0 0.0
2017-Jan-15 10:33N 68°59' E 033°03'0 0.0
2017-Jan-15 09:33N 68°59' E 033°03'0 0.0
2017-Jan-15 08:33N 68°59' E 033°03'0 0.0
2017-Jan-15 07:33N 68°59' E 033°03'0 0.0
2017-Jan-15 06:30N 68°59' E 033°03'0 0.0
2017-Jan-15 05:33N 68°59' E 033°03'0 0.0
2017-Jan-15 04:33N 68°59' E 033°03'0 0.0
2017-Jan-15 03:33N 68°59' E 033°03'0 0.0
2017-Jan-15 02:33N 68°59' E 033°03'0 0.0
2017-Jan-15 01:33N 68°59' E 033°03'0 0.0
2017-Jan-15 00:33N 68°59' E 033°03'0 0.0
2017-Jan-14 23:33N 68°59' E 033°03'0 0.0
2017-Jan-14 22:33N 68°59' E 033°03'0 0.0
2017-Jan-14 21:33N 68°59' E 033°03'1 0.7
2017-Jan-14 20:33N 68°59' E 033°02'0 0.1
2017-Jan-14 19:33N 68°59' E 033°02'0 0.0
2017-Jan-14 18:33N 68°59' E 033°02'0 0.0
2017-Jan-14 17:33N 68°59' E 033°02'0 0.0
2017-Jan-14 16:33N 68°59' E 033°02'0 0.0
2017-Jan-14 15:33N 68°59' E 033°02'0 0.0
2017-Jan-14 14:33N 68°59' E 033°02'0 0.0
2017-Jan-14 13:33N 68°59' E 033°02'0 0.0
2017-Jan-14 12:33N 68°59' E 033°02'0 0.0
2017-Jan-14 11:33N 68°59' E 033°02'0 0.0
2017-Jan-14 10:33N 68°59' E 033°02'0 0.0
2017-Jan-14 09:33N 68°59' E 033°02'0 0.0
2017-Jan-14 08:33N 68°59' E 033°02'0 0.0
2017-Jan-14 07:33N 68°59' E 033°02'0 0.0
2017-Jan-14 06:33N 68°59' E 033°02'0 0.0
2017-Jan-14 05:30N 68°59' E 033°02'0 0.0
2017-Jan-14 04:33N 68°59' E 033°02'0 0.0
2017-Jan-14 03:33N 68°59' E 033°02'  

Dump ship's entire track history